Data for 08/25/2014

Time Sea-Level Adjusted Pressure Absolute Pressure Temperature Relative Humidity Dew Point   
(mb) (inHg) (mb) (inHg) (C) (F) (%) (C) (F)
00:05 1023 30.21 852 25.16 7.7 45.9 71 2.8 37
00:10 1022 30.18 852 25.16 7.7 45.8 71 2.7 36.8
00:15 1023 30.21 852 25.16 7.6 45.7 70 2.6 36.6
00:20 1023 30.21 852 25.16 7.6 45.7 70 2.5 36.5
00:25 1023 30.21 852 25.16 7.7 45.8 69 2.4 36.4
00:30 1022 30.18 852 25.16 7.7 45.9 70 2.6 36.6
00:35 1022 30.18 852 25.16 7.7 45.9 69 2.5 36.4
00:40 1022 30.18 852 25.16 7.7 45.9 70 2.7 36.8
00:45 1022 30.18 852 25.16 7.6 45.7 71 2.7 36.9
00:50 1022 30.18 852 25.16 7.5 45.5 72 2.9 37.2
00:55 1022 30.18 851 25.13 7.4 45.3 73 2.9 37.2
01:00 1022 30.18 851 25.13 7.3 45.1 74 3 37.4
01:05 1022 30.18 851 25.13 7.2 44.9 75 3 37.4
01:10 1022 30.18 851 25.13 7.1 44.7 76 3.1 37.5
01:15 1022 30.18 851 25.13 7.1 44.7 76 3.2 37.7
01:20 1022 30.18 851 25.13 7.1 44.7 75 3 37.4
01:25 1022 30.18 851 25.13 7.1 44.7 75 3 37.4
01:30 1022 30.18 851 25.13 7.1 44.7 76 3.2 37.7
01:35 1022 30.18 851 25.13 6.9 44.4 77 3.1 37.6
01:40 1022 30.18 851 25.13 6.9 44.4 74 2.7 36.8
01:45 1022 30.18 851 25.13 6.9 44.5 76 3 37.4
01:50 1022 30.18 851 25.13 6.7 44.1 77 3 37.4
01:55 1022 30.18 851 25.13 6.5 43.7 77 2.8 37.1
02:00 1022 30.18 851 25.13 6.5 43.7 77 2.7 36.9
02:05 1022 30.18 851 25.13 6.5 43.8 77 2.8 37.1
02:10 1022 30.18 851 25.13 6.6 43.9 78 3.1 37.7
02:15 1022 30.18 851 25.13 6.7 44 77 3 37.4
02:20 1022 30.18 851 25.13 6.9 44.3 77 3.1 37.5
02:25 1022 30.18 851 25.13 6.9 44.4 75 2.8 37
02:30 1022 30.18 852 25.16 7.3 45.2 71 2.4 36.3
02:35 1022 30.18 852 25.16 7.5 45.5 70 2.4 36.4
02:40 1022 30.18 852 25.16 7.5 45.5 72 2.8 37
02:45 1022 30.18 852 25.16 7.5 45.5 70 2.4 36.3
02:50 1022 30.18 852 25.16 7.5 45.4 69 2.2 35.9
02:55 1022 30.18 852 25.16 7.5 45.5 69 2.1 35.8
03:00 1022 30.18 852 25.16 7.4 45.2 70 2.4 36.2
03:05 1022 30.18 852 25.16 7.2 45 71 2.3 36.2
03:10 1022 30.18 852 25.16 7 44.7 72 2.4 36.4
03:15 1022 30.18 852 25.16 6.9 44.4 75 2.7 36.9
03:20 1022 30.18 852 25.16 6.7 44.1 78 3.1 37.6
03:25 1022 30.18 852 25.16 6.6 43.8 80 3.3 38
03:30 1022 30.18 852 25.16 6.4 43.5 81 3.4 38.1
03:35 1022 30.18 851 25.13 6.2 43.2 83 3.6 38.4
03:40 1022 30.18 851 25.13 6.1 43 85 3.7 38.7
03:45 1022 30.18 851 25.13 6.1 43 85 3.7 38.7
03:50 1022 30.18 851 25.13 6.2 43.1 85 3.8 38.8
03:55 1022 30.18 851 25.13 6.2 43.1 85 3.9 39
04:00 1022 30.18 851 25.13 6.1 43 84 3.7 38.6
04:05 1022 30.18 851 25.13 6.1 42.9 83 3.4 38.2
04:10 1022 30.18 851 25.13 6.1 43 81 3.1 37.6
04:15 1022 30.18 851 25.13 6.1 43 81 3.1 37.6
04:20 1022 30.18 851 25.13 6.1 42.9 80 2.8 37.1
04:25 1022 30.18 851 25.13 6 42.8 81 3 37.4
04:30 1022 30.18 851 25.13 5.9 42.7 83 3.3 37.9
04:35 1022 30.18 851 25.13 5.9 42.6 84 3.3 37.9
04:40 1022 30.18 851 25.13 5.9 42.6 83 3.3 37.9
04:45 1022 30.18 851 25.13 6 42.8 84 3.5 38.3
04:50 1022 30.18 852 25.16 5.9 42.5 84 3.4 38.1
04:55 1022 30.18 852 25.16 5.6 42.1 85 3.4 38.1
05:00 1022 30.18 852 25.16 5.6 42 85 3.3 38
05:05 1022 30.18 852 25.16 5.6 42 85 3.3 37.9
05:10 1022 30.18 852 25.16 5.6 42 87 3.5 38.3
05:15 1022 30.18 852 25.16 5.2 41.3 87 3.1 37.7
05:20 1022 30.18 852 25.16 5.2 41.3 87 3.2 37.8
05:25 1022 30.18 852 25.16 5.3 41.6 87 3.3 37.9
05:30 1022 30.18 852 25.16 5.1 41.2 86 3 37.4
05:35 1023 30.21 852 25.16 5.1 41.3 86 3 37.4
05:40 1023 30.21 852 25.16 5.1 41.1 88 3.2 37.7
05:45 1023 30.21 852 25.16 5.1 41.2 87 3.1 37.6
05:50 1023 30.21 852 25.16 5.1 41.2 86 2.9 37.2
05:55 1023 30.21 852 25.16 5.1 41.2 85 2.8 37
06:00 1023 30.21 852 25.16 5.1 41.1 85 2.7 36.8
06:05 1023 30.21 852 25.16 5.2 41.3 84 2.7 36.8
06:10 1023 30.21 852 25.16 5.2 41.4 84 2.8 37
06:15 1023 30.21 852 25.16 5.2 41.3 84 2.8 37
06:20 1023 30.21 852 25.16 5 41 85 2.7 36.8
06:25 1023 30.21 852 25.16 4.7 40.5 87 2.7 36.9
06:30 1023 30.21 852 25.16 4.9 40.9 86 2.8 37
06:35 1023 30.21 852 25.16 5.2 41.4 85 3 37.3
06:40 1023 30.21 852 25.16 5.5 41.9 83 2.8 37
06:45 1023 30.21 852 25.16 5.7 42.2 82 2.9 37.2
06:50 1023 30.21 852 25.16 5.9 42.6 81 2.9 37.3
06:55 1023 30.21 852 25.16 6.2 43.1 80 3 37.4
07:00 1023 30.21 852 25.16 6.5 43.6 79 3.1 37.7
07:05 1023 30.21 852 25.16 6.7 44.1 77 3.1 37.5
07:10 1023 30.21 852 25.16 7 44.6 76 3.1 37.6
07:15 1023 30.21 853 25.19 7.2 44.9 76 3.3 37.9
07:20 1023 30.21 853 25.19 7.4 45.2 76 3.4 38.2
07:25 1023 30.21 853 25.19 7.6 45.7 76 3.6 38.5
07:30 1023 30.21 853 25.19 7.8 46 74 3.5 38.3
07:35 1023 30.21 852 25.16 8.5 47.2 70 3.3 38
07:40 1023 30.21 852 25.16 8.7 47.7 67 3 37.5
07:45 1023 30.21 852 25.16 9.1 48.4 62 2.3 36.1
07:50 1023 30.21 852 25.16 9.1 48.5 62 2.4 36.3
07:55 1023 30.21 852 25.16 9.1 48.3 63 2.4 36.2
08:00 1023 30.21 852 25.16 9.7 49.5 60 2.5 36.5
08:05 1023 30.21 852 25.16 10.1 50.2 60 2.8 37
08:10 1023 30.21 852 25.16 10.3 50.5 61 3.2 37.8
08:15 1023 30.21 852 25.16 9.6 49.3 64 3 37.5
08:20 1023 30.21 852 25.16 9.5 49.2 65 3.3 38
08:25 1023 30.21 852 25.16 10.4 50.6 62 3.4 38
08:30 1023 30.21 852 25.16 10.5 50.9 63 3.7 38.7
08:35 1023 30.21 852 25.16 11 51.8 59 3.4 38.1
08:40 1023 30.21 852 25.16 10.7 51.2 61 3.6 38.4
08:45 1023 30.21 852 25.16 10.8 51.5 60 3.5 38.3
08:50 1023 30.21 852 25.16 11.6 52.9 54 2.7 36.8
08:55 1023 30.21 852 25.16 11.2 52.2 57 3.1 37.6
09:00 1023 30.21 852 25.16 11.4 52.5 56 3 37.3
09:05 1023 30.21 852 25.16 11.5 52.6 56 3.1 37.6
09:10 1023 30.21 852 25.16 11.4 52.5 57 3.2 37.8
09:15 1023 30.21 852 25.16 11.6 52.8 54 2.6 36.7
09:20 1023 30.21 852 25.16 12.2 54 53 3 37.4
09:25 1023 30.21 852 25.16 12.8 55 55 4.1 39.4
09:30 1023 30.21 852 25.16 13.4 56 54 4.2 39.6
09:35 1023 30.21 852 25.16 13 55.3 56 4.5 40.2
09:40 1023 30.21 852 25.16 12.6 54.7 59 4.8 40.7
09:45 1023 30.21 852 25.16 12.5 54.6 56 3.9 39.1
09:50 1023 30.21 852 25.16 12.5 54.5 57 4.4 39.9
09:55 1023 30.21 852 25.16 12.8 55 57 4.4 39.9
10:00 1023 30.21 852 25.16 12.5 54.6 57 4.3 39.8
10:05 1023 30.21 852 25.16 12 53.5 60 4.5 40.1
10:10 1023 30.21 852 25.16 12.6 54.6 57 4.2 39.6
10:15 1022 30.18 852 25.16 13.4 56.1 54 4.3 39.7
10:20 1022 30.18 852 25.16 13.5 56.4 53 4.1 39.4
10:25 1022 30.18 852 25.16 13.5 56.2 52 4 39.1
10:30 1022 30.18 852 25.16 14.3 57.7 49 3.8 38.9
10:35 1022 30.18 852 25.16 13.5 56.4 54 4.6 40.2
10:40 1022 30.18 852 25.16 13.3 55.9 54 4.1 39.4
10:45 1022 30.18 851 25.13 14.3 57.7 50 4.1 39.3
10:50 1022 30.18 851 25.13 14.9 58.8 47 3.9 39
10:55 1022 30.18 851 25.13 14.4 57.9 48 3.7 38.6
11:00 1022 30.18 851 25.13 15 58.9 45 3.3 37.9
11:05 1022 30.18 851 25.13 14.6 58.4 49 4 39.3
11:10 1022 30.18 851 25.13 15.3 59.5 47 4.2 39.6
11:15 1022 30.18 851 25.13 16.2 61.1 43 3.6 38.5
11:20 1022 30.18 851 25.13 16.3 61.3 46 4.7 40.4
11:25 1022 30.18 851 25.13 15.4 59.6 48 4.4 40
11:30 1022 30.18 851 25.13 16.1 61 45 4.2 39.6
11:35 1022 30.18 851 25.13 15.9 60.6 47 4.7 40.5
11:40 1022 30.18 851 25.13 15.5 59.8 48 4.5 40
11:45 1022 30.18 851 25.13 15.3 59.5 48 4.3 39.8
11:50 1022 30.18 851 25.13 15.5 59.9 47 4.2 39.6
11:55 1022 30.18 851 25.13 17 62.5 42 4 39.2
12:00 1022 30.18 851 25.13 17.6 63.7 41 4.2 39.5
12:05 1022 30.18 851 25.13 18 64.3 41 4.5 40.2
12:10 1022 30.18 851 25.13 17.8 64.1 40 4.3 39.7
12:15 1022 30.18 851 25.13 16.8 62.3 43 4.3 39.8
12:20 1021 30.15 851 25.13 16 60.7 44 4 39.1
12:25 1021 30.15 851 25.13 16.1 61 46 4.7 40.4
12:30 1021 30.15 851 25.13 16.4 61.6 46 4.8 40.7
12:35 1021 30.15 851 25.13 16.3 61.3 44 4.2 39.5
12:40 1021 30.15 851 25.13 17.3 63.2 43 4.6 40.3
12:45 1021 30.15 850 25.1 17.4 63.4 44 5.1 41.2
12:50 1021 30.15 850 25.1 16.4 61.5 45 4.5 40.2
12:55 1021 30.15 850 25.1 16.3 61.4 45 4.4 39.8
13:00 1021 30.15 850 25.1 17.1 62.7 43 4.4 40
13:05 1021 30.15 850 25.1 17.6 63.6 40 4 39.1
13:10 1021 30.15 850 25.1 17.7 63.8 43 4.9 40.9
13:15 1021 30.15 850 25.1 17 62.6 42 4.2 39.6
13:20 1021 30.15 850 25.1 17.1 62.8 41 3.8 38.8
13:25 1021 30.15 850 25.1 18 64.3 41 4.6 40.3
13:30 1021 30.15 850 25.1 18.7 65.7 40 5 40.9
13:35 1021 30.15 850 25.1 19.2 66.5 38 4.5 40.1
13:40 1021 30.15 850 25.1 19.6 67.2 35 3.9 39
13:45 1021 30.15 850 25.1 19.6 67.2 36 4.2 39.6
13:50 1021 30.15 850 25.1 19.6 67.2 35 3.9 39
13:55 1021 30.15 850 25.1 19.7 67.4 34 3.5 38.3
14:00 1021 30.15 850 25.1 19.6 67.3 34 3.4 38.1
14:05 1021 30.15 850 25.1 19.8 67.6 33 3.4 38.1
14:10 1021 30.15 850 25.1 19.9 67.9 35 4.2 39.5
14:15 1021 30.15 850 25.1 19.4 66.8 36 4.2 39.5
14:20 1021 30.15 850 25.1 19.8 67.6 36 4.5 40.1
14:25 1021 30.15 850 25.1 19 66.3 35 3.4 38.1
14:30 1020 30.12 850 25.1 19.6 67.3 37 4.6 40.3
14:35 1020 30.12 850 25.1 20.2 68.3 35 4.2 39.6
14:40 1020 30.12 850 25.1 20.2 68.4 35 4.4 39.9
14:45 1020 30.12 850 25.1 20 68 34 3.9 39.1
14:50 1020 30.12 850 25.1 19.7 67.4 36 4.2 39.5
14:55 1020 30.12 850 25.1 20.6 69 33 3.9 38.9
15:00 1020 30.12 849 25.07 19.8 67.7 36 4.4 40
15:05 1020 30.12 849 25.07 20.1 68.2 34 4.1 39.4
15:10 1020 30.12 849 25.07 20.3 68.5 34 4 39.2
15:15 1020 30.12 849 25.07 20.3 68.6 34 4.2 39.5
15:20 1020 30.12 849 25.07 20.3 68.6 36 4.7 40.5
15:25 1020 30.12 849 25.07 20 67.9 36 4.7 40.5
15:30 1020 30.12 849 25.07 20.2 68.3 35 4.5 40.1
15:35 1020 30.12 849 25.07 19.6 67.2 36 4.2 39.5
15:40 1020 30.12 849 25.07 20.2 68.3 35 4.4 40
15:45 1020 30.12 849 25.07 19 66.3 38 4.6 40.3
15:50 1020 30.12 849 25.07 19.7 67.4 36 4.4 40
15:55 1020 30.12 849 25.07 19.8 67.7 37 4.7 40.5
16:00 1020 30.12 849 25.07 19 66.2 40 5.3 41.5
16:05 1020 30.12 849 25.07 17.7 63.9 43 5.2 41.4
16:10 1020 30.12 849 25.07 18 64.5 40 4.4 39.9
16:15 1020 30.12 849 25.07 18.5 65.2 42 5.5 41.8
16:20 1020 30.12 849 25.07 18.5 65.4 38 4.3 39.7
16:25 1020 30.12 849 25.07 19.1 66.4 39 4.9 40.9
16:30 1020 30.12 849 25.07 18.9 66 40 5 41
16:35 1020 30.12 849 25.07 18.1 64.6 41 4.7 40.5
16:40 1020 30.12 849 25.07 18.9 66.1 38 4.3 39.7
16:45 1020 30.12 849 25.07 18.9 66 41 5.4 41.8
16:50 1020 30.12 849 25.07 19.5 67 38 4.9 40.7
16:55 1020 30.12 849 25.07 18.9 66.1 40 5.2 41.4
17:00 1020 30.12 849 25.07 18.5 65.2 40 4.7 40.5
17:05 1020 30.12 849 25.07 19.1 66.5 38 4.6 40.2
17:10 1020 30.12 849 25.07 19.1 66.3 40 5.4 41.6
17:15 1020 30.12 849 25.07 18.7 65.7 38 4.3 39.7
17:20 1020 30.12 849 25.07 19.2 66.5 38 4.7 40.5
17:25 1020 30.12 849 25.07 19.2 66.5 38 4.8 40.6
17:30 1020 30.12 849 25.07 18.7 65.7 41 5.3 41.5
17:35 1020 30.12 849 25.07 18.4 65.1 43 5.8 42.4
17:40 1020 30.12 849 25.07 18.1 64.5 42 5.1 41.1
17:45 1020 30.12 849 25.07 17.7 63.9 43 5.2 41.4
17:50 1020 30.12 849 25.07 17.8 64 42 4.9 40.8
17:55 1020 30.12 849 25.07 17.6 63.6 43 5 41
18:00 1020 30.12 849 25.07 17.5 63.5 44 5.4 41.7
18:05 1020 30.12 849 25.07 17.6 63.6 44 5.4 41.7
18:10 1020 30.12 849 25.07 17.7 63.9 43 5.1 41.2
18:15 1020 30.12 849 25.07 17.8 64 44 5.6 42
18:20 1020 30.12 849 25.07 17.4 63.3 46 5.6 42.1
18:25 1020 30.12 849 25.07 17.4 63.3 45 5.5 41.9
18:30 1020 30.12 849 25.07 17.5 63.6 45 5.5 42
18:35 1020 30.12 849 25.07 17.6 63.6 44 5.2 41.4
18:40 1020 30.12 849 25.07 17.5 63.5 44 5.3 41.6
18:45 1020 30.12 849 25.07 17.5 63.5 44 5.2 41.4
18:50 1020 30.12 849 25.07 17.5 63.5 44 5.1 41.2
18:55 1020 30.12 849 25.07 17.4 63.3 43 4.9 40.8
19:00 1020 30.12 849 25.07 17.3 63.2 44 5.2 41.4
19:05 1020 30.12 849 25.07 17.3 63.1 45 5.3 41.5
19:10 1020 30.12 849 25.07 17.1 62.7 45 5.2 41.3
19:15 1020 30.12 849 25.07 17.1 62.7 43 4.6 40.3
19:20 1020 30.12 849 25.07 16.9 62.5 50 6.6 44
19:25 1020 30.12 849 25.07 16.6 61.8 53 7 44.6
19:30 1020 30.12 849 25.07 16.2 61.1 55 7.2 44.9
19:35 1020 30.12 850 25.1 15.8 60.4 61 8.3 47
19:40 1020 30.12 849 25.07 15.3 59.5 64 8.6 47.4
19:45 1020 30.12 849 25.07 15.2 59.4 60 7.5 45.4
19:50 1020 30.12 849 25.07 15.5 59.9 59 7.6 45.7
19:55 1020 30.12 849 25.07 15.5 60 57 7.2 44.9
20:00 1020 30.12 849 25.07 15.3 59.5 59 7.3 45.2
20:05 1020 30.12 849 25.07 15.1 59.2 60 7.5 45.5
20:10 1020 30.12 849 25.07 15 59 62 7.8 46
20:15 1020 30.12 850 25.1 14.8 58.6 63 7.8 46.1
20:20 1020 30.12 850 25.1 14.6 58.2 64 7.9 46.3
20:25 1020 30.12 850 25.1 14.5 58.1 65 8 46.3
20:30 1021 30.15 850 25.1 14.4 57.9 65 8 46.4
20:35 1021 30.15 850 25.1 14.2 57.6 66 8.1 46.6
20:40 1021 30.15 850 25.1 14.1 57.3 67 8.1 46.5
20:45 1021 30.15 850 25.1 13.8 56.9 67 7.9 46.3
20:50 1021 30.15 850 25.1 13.7 56.7 67 7.8 46
20:55 1021 30.15 850 25.1 14 57.1 64 7.2 45
21:00 1021 30.15 850 25.1 13.9 57.1 65 7.6 45.6
21:05 1021 30.15 850 25.1 13.7 56.6 67 7.7 45.9
21:10 1021 30.15 850 25.1 13.5 56.2 68 7.7 45.8
21:15 1021 30.15 850 25.1 13.3 55.9 68 7.7 45.8
21:20 1021 30.15 850 25.1 13.2 55.7 68 7.4 45.4
21:25 1021 30.15 850 25.1 13.2 55.8 68 7.5 45.6
21:30 1021 30.15 850 25.1 13.2 55.7 70 7.8 46.1
21:35 1021 30.15 850 25.1 13 55.4 70 7.7 45.8
21:40 1021 30.15 850 25.1 12.9 55.3 70 7.6 45.6
21:45 1021 30.15 850 25.1 12.9 55.2 70 7.5 45.5
21:50 1021 30.15 850 25.1 12.9 55.1 70 7.5 45.6
21:55 1021 30.15 850 25.1 12.7 54.9 70 7.5 45.5
22:00 1021 30.15 850 25.1 12.7 54.9 71 7.6 45.6
22:05 1021 30.15 850 25.1 12.6 54.7 71 7.6 45.6
22:10 1021 30.15 850 25.1 12.5 54.5 72 7.7 45.8
22:15 1021 30.15 850 25.1 12.4 54.2 73 7.7 45.9
22:20 1021 30.15 850 25.1 12.3 54.1 73 7.6 45.6
22:25 1021 30.15 850 25.1 12.4 54.3 71 7.3 45.2
22:30 1021 30.15 851 25.13 12.5 54.6 70 7.3 45.2
22:35 1021 30.15 851 25.13 12.8 55 68 7.1 44.8
22:40 1021 30.15 851 25.13 12.9 55.2 67 7 44.7
22:45 1021 30.15 851 25.13 12.9 55.3 67 7.1 44.7
22:50 1021 30.15 851 25.13 12.9 55.2 67 7.1 44.7
22:55 1021 30.15 851 25.13 12.8 55 68 7 44.5
23:00 1022 30.18 851 25.13 12.5 54.5 69 7 44.7
23:05 1022 30.18 851 25.13 12.3 54.1 72 7.5 45.4
23:10 1021 30.15 851 25.13 12.1 53.7 73 7.4 45.4
23:15 1022 30.18 851 25.13 11.9 53.4 74 7.3 45.2
23:20 1022 30.18 851 25.13 11.8 53.2 74 7.3 45.2
23:25 1022 30.18 851 25.13 11.6 53 75 7.5 45.4
23:30 1022 30.18 851 25.13 11.5 52.8 76 7.5 45.5
23:35 1022 30.18 851 25.13 11.4 52.5 77 7.5 45.5
23:40 1022 30.18 851 25.13 11.3 52.4 78 7.6 45.6
23:45 1021 30.15 851 25.13 11.3 52.3 78 7.6 45.7
23:50 1021 30.15 851 25.13 11.1 52 79 7.6 45.6
23:55 1022 30.18 851 25.13 11.1 52 78 7.5 45.4
24:00 1022 30.18 851 25.13 11.2 52.2 78 7.5 45.5